Staffordville, New Jersey
Current Conditions -  °F | °C
As of 8:55 PM on Wednesday 22 Oct 2014 (Local Time) from KMJX Reporting Station
Overcast Overcast  
Wind Chill: 52°   Ceiling: 1700
Heat Index: 52°   Visibility: 6mi
Dew Point: 48°   Wind: 6mph
Humidity: 88%   Direction: 340°NNW
Pressure: 29.77"   Gusts: 16mph
Location:  39.6605°N, 74.2864°W
Report Text: KMJX 230055Z AUTO 34005G14KT 6SM BKN017 OVC023 11/09 A2977 RMK AO1
Loading
Personal Weather Stations






























Interactive Weather Map New forecast layout! Learn more

10-Day Weather Forecast

Advertisements
Track Severe Weather on mobile